Time;durP1;ratioP1;P1;durP2;ratioP2;P2;SDS_P1;SDS_P2;PMS_P1;PMS_P2;Temp;Humidity;BMP_temperature;BMP_pressure;BME280_temperature;BME280_humidity;BME280_pressure;Samples;Min_cycle;Max_cycle;Signal;HPM_P1;HPM_P2
2023/06/30 00:02:51;;;;;;;7.63;5.07;;;;;;;18.26;60.54;99782.84;30853208;28;110664;-70
2023/06/30 00:17:52;;;;;;;9.83;6.00;;;;;;;17.79;61.87;99778.13;30852110;28;96694;-70
2023/06/30 00:32:52;;;;;;;8.82;6.10;;;;;;;17.75;62.83;99779.63;30857454;28;96693;-73
2023/06/30 00:47:53;;;;;;;8.50;5.60;;;;;;;17.69;63.23;99762.50;30870883;28;103796;-70
2023/06/30 01:03:15;;;;;;;8.60;5.88;;;;;;;17.69;63.52;99751.72;30869706;28;97359;-69
2023/06/30 01:18:20;;;;;;;9.13;5.67;;;;;;;17.69;64.05;99740.94;30868359;28;97262;-69
2023/06/30 01:33:21;;;;;;;7.40;5.43;;;;;;;17.69;64.16;99723.97;30865628;28;97917;-70
2023/06/30 01:48:21;;;;;;;7.10;5.60;;;;;;;17.67;64.50;99718.78;30864772;28;97225;-69
2023/06/30 02:03:21;;;;;;;7.95;5.18;;;;;;;17.55;65.10;99710.69;30863446;28;96674;-70
2023/06/30 02:18:22;;;;;;;8.40;5.65;;;;;;;17.55;65.51;99708.00;30862169;28;100248;-69
2023/06/30 02:33:23;;;;;;;8.05;4.95;;;;;;;17.49;65.61;99698.13;30861636;28;97278;-65
2023/06/30 02:48:23;;;;;;;9.03;5.40;;;;;;;17.44;65.86;99684.50;30857879;28;98036;-65
2023/06/30 03:03:23;;;;;;;8.27;5.13;;;;;;;17.42;66.24;99681.25;30856745;28;110192;-70
2023/06/30 03:18:24;;;;;;;7.47;4.90;;;;;;;17.46;66.44;99677.03;30855948;28;115078;-66
2023/06/30 03:33:25;;;;;;;7.40;5.07;;;;;;;17.43;66.57;99666.75;30854786;28;96767;-65
2023/06/30 03:48:25;;;;;;;9.73;4.97;;;;;;;17.38;66.81;99655.81;30851005;28;98093;-67
2023/06/30 04:03:26;;;;;;;10.93;5.07;;;;;;;17.44;67.16;99662.97;30849477;28;96724;-70
2023/06/30 04:18:27;;;;;;;8.45;5.65;;;;;;;17.54;67.35;99663.25;30872197;28;96893;-70
2023/06/30 04:33:27;;;;;;;7.83;5.57;;;;;;;17.67;66.52;99656.84;30871673;28;97726;-70
2023/06/30 04:48:27;;;;;;;10.23;4.57;;;;;;;17.74;67.30;99645.97;30868662;28;97422;-70
2023/06/30 05:03:28;;;;;;;8.55;5.13;;;;;;;17.85;67.17;99647.88;30866041;28;96669;-69
2023/06/30 05:18:28;;;;;;;6.53;5.15;;;;;;;17.89;66.71;99646.38;30863689;28;107332;-67
2023/06/30 05:33:28;;;;;;;12.32;5.30;;;;;;;17.99;67.08;99650.38;30863924;28;101474;-69
2023/06/30 05:48:29;;;;;;;12.27;6.15;;;;;;;18.74;66.67;99655.06;30792351;28;98646;-70
2023/06/30 06:03:30;;;;;;;11.65;4.88;;;;;;;19.57;64.89;99657.53;30824455;28;98160;-73
2023/06/30 06:18:31;;;;;;;12.57;4.17;;;;;;;20.81;62.92;99645.94;30822902;28;98391;-69
2023/06/30 06:33:32;;;;;;;10.57;6.90;;;;;;;21.64;60.70;99647.69;30821269;28;98975;-65
2023/06/30 06:48:32;;;;;;;7.67;3.77;;;;;;;22.67;58.96;99645.75;30811944;28;97934;-68
2023/06/30 07:03:32;;;;;;;;;;;;;;;23.55;56.44;99637.91;30818948;28;97765;-69
2023/06/30 07:18:34;;;;;;;5.87;3.07;;;;;;;24.73;52.86;99640.53;30836980;28;97306;-70
2023/06/30 07:33:34;;;;;;;6.13;2.80;;;;;;;25.91;49.65;99617.22;30852074;28;97390;-69
2023/06/30 07:48:34;;;;;;;6.43;2.95;;;;;;;26.77;47.55;99619.38;30850445;28;104423;-70
2023/06/30 08:03:35;;;;;;;4.65;2.03;;;;;;;27.15;43.89;99610.41;30849524;28;96664;-69
2023/06/30 08:18:35;;;;;;;5.90;2.28;;;;;;;27.19;42.72;99606.78;30848151;28;97136;-66
2023/06/30 08:33:35;;;;;;;5.68;2.10;;;;;;;27.44;41.31;99604.00;30847216;28;115159;-67
2023/06/30 08:48:36;;;;;;;6.35;2.10;;;;;;;27.06;41.56;99609.44;30846308;28;111099;-68
2023/06/30 09:03:37;;;;;;;4.03;2.25;;;;;;;26.10;42.07;99605.63;30863071;28;96963;-69
2023/06/30 09:18:38;;;;;;;5.80;2.77;;;;;;;25.73;45.23;99601.56;30863407;28;109827;-69
2023/06/30 09:33:39;;;;;;;5.32;2.28;;;;;;;25.53;46.22;99602.53;30866312;28;97121;-66
2023/06/30 09:48:40;;;;;;;8.20;2.57;;;;;;;25.23;46.78;99604.34;30872003;28;96827;-67
2023/06/30 10:03:48;;;;;;;8.05;3.00;;;;;;;25.58;48.00;99589.66;30813874;28;97414;-68
2023/06/30 10:18:50;;;;;;;7.10;2.63;;;;;;;25.81;47.47;99587.31;30856570;28;96704;-69
2023/06/30 10:33:50;;;;;;;5.50;2.10;;;;;;;25.45;46.80;99584.84;30857187;28;97461;-67
2023/06/30 10:48:55;;;;;;;3.08;2.15;;;;;;;25.27;47.46;99578.13;30860761;28;97331;-71
2023/06/30 11:03:58;;;;;;;3.67;2.50;;;;;;;26.22;47.85;99576.00;30842711;28;96700;-65
2023/06/30 11:18:59;;;;;;;7.23;2.30;;;;;;;27.09;46.09;99559.63;30849937;28;97359;-68
2023/06/30 11:34:00;;;;;;;10.40;2.45;;;;;;;27.47;44.76;99552.22;30852812;28;97973;-71
2023/06/30 11:49:00;;;;;;;3.95;2.08;;;;;;;26.80;44.22;99550.47;30842770;28;96845;-71
2023/06/30 12:04:08;;;;;;;5.18;2.10;;;;;;;26.76;43.56;99537.69;30802813;28;97275;-71
2023/06/30 12:19:08;;;;;;;6.47;2.00;;;;;;;26.62;43.56;99527.47;30846529;28;97680;-74
2023/06/30 12:34:09;;;;;;;5.32;2.78;;;;;;;25.57;45.02;99533.50;30857230;28;97580;-75
2023/06/30 12:49:10;;;;;;;6.25;2.60;;;;;;;24.93;47.32;99543.47;30864296;28;98036;-74
2023/06/30 13:04:10;;;;;;;6.87;4.27;;;;;;;25.21;49.15;99532.97;30861721;28;97364;-73
2023/06/30 13:19:12;;;;;;;6.30;3.17;;;;;;;25.80;50.39;99522.94;30863724;28;97349;-88
2023/06/30 13:34:13;;;;;;;8.97;3.30;;;;;;;25.80;50.45;99509.28;30862954;28;96910;-74
2023/06/30 13:49:13;;;;;;;4.03;2.72;;;;;;;25.76;48.85;99519.16;30860628;28;96693;-78
2023/06/30 14:04:14;;;;;;;5.03;3.28;;;;;;;25.56;48.83;99514.69;30860053;28;97256;-71
2023/06/30 14:19:14;;;;;;;5.22;2.70;;;;;;;25.48;50.70;99514.22;30849102;28;97343;-83
2023/06/30 14:34:14;;;;;;;5.22;2.70;;;;;;;25.89;48.87;99476.72;30856007;28;100225;-76
2023/06/30 14:49:15;;;;;;;5.15;2.63;;;;;;;25.92;48.75;99451.59;30855603;28;96943;-72
2023/06/30 15:04:15;;;;;;;6.22;3.00;;;;;;;25.92;48.30;99438.75;30855285;28;96828;-70
2023/06/30 15:19:16;;;;;;;5.75;3.40;;;;;;;25.33;49.37;99440.75;30854172;28;97453;-78
2023/06/30 15:34:17;;;;;;;10.03;6.17;;;;;;;25.41;49.67;99447.47;30789598;28;97505;-69
2023/06/30 15:49:17;;;;;;;11.80;8.18;;;;;;;24.97;50.24;99447.28;30742480;28;97470;-74
2023/06/30 16:04:18;;;;;;;9.27;6.03;;;;;;;23.83;52.90;99454.34;30775075;28;112724;-68
2023/06/30 16:19:18;;;;;;;6.97;5.18;;;;;;;23.36;55.79;99472.66;30748001;28;96745;-75
2023/06/30 16:34:18;;;;;;;13.40;5.57;;;;;;;23.11;56.18;99490.56;30747893;28;104750;-68
2023/06/30 16:49:19;;;;;;;8.43;5.10;;;;;;;22.65;57.65;99495.91;30746577;28;97999;-70
2023/06/30 17:04:19;;;;;;;;;;;;;;;21.91;60.43;99509.38;30833922;28;97381;-73
2023/06/30 17:19:19;;;;;;;9.35;7.07;;;;;;;21.36;62.17;99502.44;30838968;28;97209;-68
2023/06/30 17:34:20;;;;;;;10.23;7.80;;;;;;;20.97;64.50;99498.06;30854147;28;108254;-72
2023/06/30 17:49:27;;;;;;;11.40;9.20;;;;;;;20.63;66.63;99495.50;30851320;28;99766;-69
2023/06/30 18:04:27;;;;;;;10.13;9.03;;;;;;;20.15;69.11;99489.78;30849691;28;96898;-68
2023/06/30 18:19:28;;;;;;;12.10;9.23;;;;;;;19.84;70.53;99483.97;30849607;28;106714;-71
2023/06/30 18:34:30;;;;;;;11.88;8.07;;;;;;;19.52;71.12;99489.97;30847983;28;97331;-68
2023/06/30 18:49:30;;;;;;;10.43;9.33;;;;;;;19.20;72.64;99501.31;30848340;28;97328;-67
2023/06/30 19:04:30;;;;;;;12.45;10.90;;;;;;;18.93;74.32;99512.75;30841801;28;111848;-70
2023/06/30 19:19:31;;;;;;;13.52;10.80;;;;;;;18.77;75.23;99510.78;30843103;28;101697;-72
2023/06/30 19:34:32;;;;;;;;;;;;;;;18.66;75.70;99517.03;30844793;28;96709;-69
2023/06/30 19:49:32;;;;;;;16.00;12.30;;;;;;;18.57;76.33;99519.28;30842215;28;97219;-76
2023/06/30 20:04:32;;;;;;;16.02;11.82;;;;;;;18.36;76.98;99518.06;30839458;28;97371;-71
2023/06/30 20:19:33;;;;;;;10.85;8.82;;;;;;;18.37;77.60;99509.75;30840337;28;97108;-75
2023/06/30 20:34:33;;;;;;;9.82;8.45;;;;;;;18.34;77.74;99510.19;30838144;28;96978;-73
2023/06/30 20:49:33;;;;;;;13.90;9.55;;;;;;;18.41;77.31;99510.06;30787566;28;97479;-80
2023/06/30 21:04:34;;;;;;;12.18;9.13;;;;;;;18.26;77.39;99486.31;30754966;28;110890;-81
2023/06/30 21:19:34;;;;;;;11.20;9.88;;;;;;;18.45;77.41;99470.78;30823878;28;97094;-78
2023/06/30 21:34:34;;;;;;;12.85;10.52;;;;;;;18.23;77.27;99471.44;30734103;28;110231;-75
2023/06/30 21:49:35;;;;;;;13.38;11.20;;;;;;;18.18;77.53;99474.03;30758557;28;97209;-77
2023/06/30 22:04:35;;;;;;;12.77;11.48;;;;;;;18.19;77.47;99464.91;30842286;28;97239;-68
2023/06/30 22:19:36;;;;;;;14.20;12.63;;;;;;;18.06;77.70;99457.88;30850950;28;108683;-72
2023/06/30 22:34:36;;;;;;;15.70;12.02;;;;;;;17.95;78.09;99457.88;30851111;28;97164;-76
2023/06/30 22:49:37;;;;;;;16.40;12.70;;;;;;;17.95;79.13;99444.41;30850355;28;97591;-75
2023/06/30 23:04:37;;;;;;;13.63;12.25;;;;;;;17.73;78.74;99450.41;30849076;28;96827;-71
2023/06/30 23:19:41;;;;;;;15.55;12.85;;;;;;;17.90;79.04;99448.59;30842341;28;111655;-76
2023/06/30 23:34:42;;;;;;;12.77;11.10;;;;;;;18.08;79.94;99444.16;30856041;28;97247;-75
2023/06/30 23:49:45;;;;;;;17.00;11.70;;;;;;;18.44;79.23;99445.69;30855220;28;96726;-70
